createdAt,value
2022-11-11T00:02:37.711Z,7.61
2022-11-11T00:06:39.199Z,7.71
2022-11-11T00:10:40.734Z,7.57
2022-11-11T00:14:42.168Z,7.50
2022-11-11T00:19:03.716Z,7.54
2022-11-11T00:23:23.919Z,7.43
2022-11-11T00:27:25.368Z,7.38
2022-11-11T00:31:26.838Z,7.38
2022-11-11T00:35:46.770Z,7.42
2022-11-11T00:39:48.168Z,7.36
2022-11-11T00:43:49.634Z,7.36
2022-11-11T00:48:09.352Z,7.32
2022-11-11T00:52:10.804Z,7.36
2022-11-11T00:56:12.397Z,7.42
2022-11-11T01:00:14.428Z,7.45
2022-11-11T01:04:15.990Z,7.37
2022-11-11T01:08:17.451Z,7.30
2022-11-11T01:12:19.033Z,7.10
2022-11-11T01:16:23.077Z,6.89
2022-11-11T01:20:24.689Z,6.94
2022-11-11T01:24:26.498Z,6.91
2022-11-11T01:28:28.344Z,7.05
2022-11-11T01:32:30.151Z,6.92
2022-11-11T01:36:31.647Z,6.95
2022-11-11T01:40:44.600Z,6.90
2022-11-11T01:44:47.936Z,6.91
2022-11-11T01:49:11.597Z,6.88
2022-11-11T01:53:13.167Z,6.95
2022-11-11T01:57:25.060Z,6.92
2022-11-11T02:01:26.814Z,6.91
2022-11-11T02:05:45.410Z,6.98
2022-11-11T02:09:48.707Z,7.05
2022-11-11T02:14:08.841Z,7.08
2022-11-11T02:18:11.066Z,7.09
2022-11-11T02:22:23.851Z,7.02
2022-11-11T02:26:26.949Z,7.04
2022-11-11T02:30:28.390Z,7.06
2022-11-11T02:34:32.801Z,7.09
2022-11-11T02:38:34.388Z,6.99
2022-11-11T02:42:36.630Z,6.99
2022-11-11T02:46:38.196Z,6.99
2022-11-11T02:50:39.752Z,7.01
2022-11-11T02:54:43.315Z,7.02
2022-11-11T02:58:44.933Z,6.88
2022-11-11T03:02:46.689Z,6.93
2022-11-11T03:06:48.404Z,6.93
2022-11-11T03:10:50.123Z,6.98
2022-11-11T03:14:51.994Z,6.81
2022-11-11T03:18:53.602Z,6.89
2022-11-11T03:23:15.483Z,6.83
2022-11-11T03:27:17.099Z,6.80
2022-11-11T03:31:18.647Z,6.75
2022-11-11T03:35:20.085Z,6.81
2022-11-11T03:39:21.584Z,6.83
2022-11-11T03:43:28.263Z,6.88
2022-11-11T03:47:29.796Z,6.92
2022-11-11T03:51:31.212Z,6.86
2022-11-11T03:55:32.650Z,6.82
2022-11-11T03:59:34.095Z,6.75
2022-11-11T04:03:54.027Z,6.80
2022-11-11T04:08:13.880Z,6.79
2022-11-11T04:12:15.342Z,6.89
2022-11-11T04:16:16.834Z,6.75
2022-11-11T04:20:36.558Z,6.89
2022-11-11T04:25:16.174Z,6.90
2022-11-11T04:29:29.533Z,6.81
2022-11-11T04:33:30.998Z,6.79
2022-11-11T04:37:35.132Z,6.73
2022-11-11T04:42:01.648Z,6.82
2022-11-11T04:45:59.254Z,6.68
2022-11-11T04:50:06.779Z,6.70
2022-11-11T04:54:08.756Z,6.65
2022-11-11T04:58:10.444Z,6.68
2022-11-11T05:02:30.496Z,6.75
2022-11-11T05:06:52.755Z,6.62
2022-11-11T05:10:54.380Z,6.70
2022-11-11T05:15:14.341Z,6.79
2022-11-11T05:19:34.727Z,6.64
2022-11-11T05:23:54.592Z,6.63
2022-11-11T05:27:57.701Z,6.68
2022-11-11T05:31:59.168Z,6.70
2022-11-11T05:36:00.624Z,6.72
2022-11-11T05:40:02.132Z,6.76
2022-11-11T05:44:03.693Z,6.89
2022-11-11T05:48:05.425Z,7.01
2022-11-11T05:52:07.684Z,6.93
2022-11-11T05:56:09.122Z,6.95
2022-11-11T06:00:11.236Z,7.06
2022-11-11T06:04:17.903Z,6.98
2022-11-11T06:08:19.947Z,6.89
2022-11-11T06:12:21.386Z,6.95
2022-11-11T06:16:23.431Z,6.83
2022-11-11T06:20:24.936Z,6.94
2022-11-11T06:24:27.103Z,6.80
2022-11-11T06:28:28.676Z,6.88
2022-11-11T06:32:30.268Z,6.83
2022-11-11T06:36:31.732Z,6.84
2022-11-11T06:40:33.509Z,6.86
2022-11-11T06:44:34.936Z,6.81
2022-11-11T06:48:37.582Z,6.89
2022-11-11T06:52:39.049Z,6.85
2022-11-11T06:56:40.546Z,6.94
2022-11-11T07:00:42.988Z,6.91
2022-11-11T07:04:44.520Z,6.94
2022-11-11T07:08:46.022Z,6.84
2022-11-11T07:12:47.575Z,6.57
2022-11-11T07:16:48.990Z,6.62
2022-11-11T07:20:50.445Z,6.70
2022-11-11T07:24:52.039Z,6.70
2022-11-11T07:28:53.565Z,6.83
2022-11-11T07:32:55.178Z,6.76
2022-11-11T07:36:56.859Z,6.82
2022-11-11T07:40:58.310Z,6.84
2022-11-11T07:44:59.767Z,6.98
2022-11-11T07:49:01.293Z,7.19
2022-11-11T07:53:02.732Z,7.23
2022-11-11T07:57:04.253Z,7.37
2022-11-11T08:01:08.771Z,7.30
2022-11-11T08:05:10.715Z,7.42
2022-11-11T08:09:12.154Z,7.44
2022-11-11T08:13:45.914Z,7.47
2022-11-11T08:17:47.386Z,7.69
2022-11-11T08:21:48.830Z,7.80
2022-11-11T08:25:50.277Z,7.86
2022-11-11T08:29:51.736Z,8.04
2022-11-11T08:33:54.415Z,7.97
2022-11-11T08:37:55.897Z,8.11
2022-11-11T08:41:57.330Z,8.48
2022-11-11T08:46:04.102Z,8.52
2022-11-11T08:50:06.743Z,8.44
2022-11-11T08:54:08.303Z,8.70
2022-11-11T08:58:10.843Z,8.88
2022-11-11T09:02:13.413Z,9.03
2022-11-11T09:06:15.113Z,9.35
2022-11-11T09:10:16.846Z,9.31
2022-11-11T09:14:18.284Z,9.37
2022-11-11T09:18:20.081Z,9.74
2022-11-11T09:22:21.498Z,9.38
2022-11-11T09:26:23.039Z,9.67
2022-11-11T09:30:30.546Z,9.58
2022-11-11T09:34:32.052Z,10.05
2022-11-11T09:38:33.507Z,10.20
2022-11-11T09:42:42.824Z,10.37
2022-11-11T09:47:01.390Z,9.96
2022-11-11T09:51:05.488Z,10.07
2022-11-11T09:55:19.408Z,10.06
2022-11-11T09:59:36.399Z,9.85
2022-11-11T10:03:49.847Z,9.74
2022-11-11T10:07:58.662Z,9.75
2022-11-11T10:12:06.179Z,9.93
2022-11-11T10:16:21.048Z,9.87
2022-11-11T10:20:31.978Z,9.95
2022-11-11T10:24:43.603Z,9.97
2022-11-11T10:28:52.864Z,9.87
2022-11-11T10:33:26.296Z,10.29
2022-11-11T10:37:40.167Z,10.19
2022-11-11T10:41:49.510Z,10.19
2022-11-11T10:46:01.458Z,10.91
2022-11-11T10:50:13.845Z,10.66
2022-11-11T10:54:23.032Z,10.96
2022-11-11T10:58:53.626Z,10.93
2022-11-11T11:02:56.394Z,10.70
2022-11-11T11:07:00.473Z,10.72
2022-11-11T11:11:08.534Z,10.75
2022-11-11T11:15:23.082Z,10.85
2022-11-11T11:19:26.638Z,11.10
2022-11-11T11:23:47.028Z,11.29
2022-11-11T11:27:50.958Z,11.22
2022-11-11T11:31:53.219Z,11.03
2022-11-11T11:35:54.722Z,10.92
2022-11-11T11:40:01.592Z,10.91
2022-11-11T11:44:03.035Z,10.83
2022-11-11T11:48:41.603Z,10.73
2022-11-11T11:53:15.290Z,10.85
2022-11-11T11:57:41.596Z,10.98
2022-11-11T12:01:51.807Z,11.18
2022-11-11T12:06:14.044Z,11.33
2022-11-11T12:10:28.404Z,11.06
2022-11-11T12:14:50.368Z,11.08
2022-11-11T12:19:15.280Z,10.98
2022-11-11T12:23:29.050Z,11.15
2022-11-11T12:27:54.293Z,11.00
2022-11-11T12:32:21.525Z,11.28
2022-11-11T12:36:55.053Z,11.07
2022-11-11T12:41:27.848Z,11.20
2022-11-11T12:45:40.838Z,11.35
2022-11-11T12:49:56.934Z,11.53
2022-11-11T12:54:04.325Z,11.26
2022-11-11T12:58:38.033Z,11.36
2022-11-11T13:03:04.838Z,11.47
2022-11-11T13:07:32.355Z,11.69
2022-11-11T13:12:17.965Z,11.80
2022-11-11T13:16:23.639Z,12.00
2022-11-11T13:20:56.924Z,11.75
2022-11-11T13:25:04.774Z,11.33
2022-11-11T13:29:28.986Z,11.68
2022-11-11T13:33:48.999Z,11.72
2022-11-11T13:37:50.853Z,11.92
2022-11-11T13:41:55.287Z,11.46
2022-11-11T13:45:59.690Z,11.73
2022-11-11T13:50:09.649Z,11.42
2022-11-11T13:54:34.659Z,11.23
2022-11-11T13:58:47.289Z,11.28
2022-11-11T14:03:10.175Z,11.14
2022-11-11T14:07:49.475Z,11.20
2022-11-11T14:11:50.981Z,11.10
2022-11-11T14:15:54.307Z,11.26
2022-11-11T14:19:55.918Z,10.92
2022-11-11T14:23:57.407Z,10.93
2022-11-11T14:27:58.882Z,11.18
2022-11-11T14:32:22.460Z,10.99
2022-11-11T14:36:46.290Z,10.99
2022-11-11T14:40:48.130Z,11.02
2022-11-11T14:44:49.690Z,10.98
2022-11-11T14:48:51.164Z,11.03
2022-11-11T14:52:54.222Z,11.00
2022-11-11T14:57:03.358Z,10.93
2022-11-11T15:01:15.592Z,10.91
2022-11-11T15:05:25.507Z,10.79
2022-11-11T15:09:38.989Z,10.78
2022-11-11T15:14:04.768Z,10.74
2022-11-11T15:18:14.355Z,10.66
2022-11-11T15:22:33.919Z,10.57
2022-11-11T15:26:44.307Z,10.39
2022-11-11T15:30:57.512Z,10.12
2022-11-11T15:35:26.758Z,10.22
2022-11-11T15:39:38.622Z,10.08
2022-11-11T15:43:40.221Z,9.90
2022-11-11T15:47:41.737Z,9.82
2022-11-11T15:51:43.499Z,9.94
2022-11-11T15:55:52.961Z,9.87
2022-11-11T16:00:01.567Z,9.59
2022-11-11T16:04:22.502Z,9.66
2022-11-11T16:08:31.105Z,9.51
2022-11-11T16:12:45.507Z,9.56
2022-11-11T16:16:47.453Z,9.55
2022-11-11T16:21:09.850Z,9.43
2022-11-11T16:25:21.985Z,9.35
2022-11-11T16:29:29.718Z,9.24
2022-11-11T16:33:32.259Z,9.17
2022-11-11T16:37:51.316Z,9.20
2022-11-11T16:41:54.352Z,9.16
2022-11-11T16:46:09.802Z,9.14
2022-11-11T16:50:17.081Z,9.25
2022-11-11T16:54:21.877Z,9.17
2022-11-11T16:58:23.491Z,9.11
2022-11-11T17:02:25.296Z,8.99
2022-11-11T17:06:48.435Z,8.99
2022-11-11T17:10:50.358Z,8.96
2022-11-11T17:14:56.045Z,8.87
2022-11-11T17:19:00.107Z,8.75
2022-11-11T17:23:06.550Z,8.78
2022-11-11T17:27:09.166Z,8.63
2022-11-11T17:31:12.521Z,8.58
2022-11-11T17:35:16.836Z,8.46
2022-11-11T17:39:18.616Z,8.29
2022-11-11T17:43:20.481Z,8.11
2022-11-11T17:47:22.043Z,8.12
2022-11-11T17:51:24.689Z,8.13
2022-11-11T17:55:26.275Z,8.29
2022-11-11T17:59:29.410Z,8.28
2022-11-11T18:03:31.204Z,8.25
2022-11-11T18:07:33.090Z,8.14
2022-11-11T18:11:36.483Z,8.00
2022-11-11T18:15:37.976Z,7.80
2022-11-11T18:19:39.462Z,7.73
2022-11-11T18:23:40.983Z,7.63
2022-11-11T18:27:42.469Z,7.58
2022-11-11T18:31:43.971Z,7.43
2022-11-11T18:35:45.422Z,7.35
2022-11-11T18:39:46.859Z,7.31
2022-11-11T18:43:49.679Z,7.29
2022-11-11T18:47:51.276Z,7.26
2022-11-11T18:51:52.773Z,7.23
2022-11-11T18:55:54.189Z,7.24
2022-11-11T18:59:55.742Z,7.15
2022-11-11T19:04:02.628Z,7.30
2022-11-11T19:08:05.025Z,7.22
2022-11-11T19:12:06.603Z,7.13
2022-11-11T19:16:11.530Z,7.02
2022-11-11T19:20:12.984Z,7.00
2022-11-11T19:24:15.373Z,7.14
2022-11-11T19:28:16.836Z,7.13
2022-11-11T19:32:18.327Z,7.05
2022-11-11T19:36:23.771Z,7.05
2022-11-11T19:40:25.235Z,7.07
2022-11-11T19:44:26.713Z,7.11
2022-11-11T19:48:28.233Z,7.00
2022-11-11T19:52:30.139Z,6.99
2022-11-11T19:56:31.809Z,6.96
2022-11-11T20:00:33.289Z,6.79
2022-11-11T20:04:34.776Z,6.66
2022-11-11T20:08:36.300Z,6.76
2022-11-11T20:12:37.696Z,6.86
2022-11-11T20:16:39.296Z,6.78
2022-11-11T20:20:40.741Z,6.87
2022-11-11T20:24:42.262Z,6.89
2022-11-11T20:28:44.640Z,6.73
2022-11-11T20:32:46.163Z,6.73
2022-11-11T20:36:47.703Z,6.79
2022-11-11T20:40:58.180Z,6.74
2022-11-11T20:44:59.746Z,6.72
2022-11-11T20:49:01.531Z,6.77
2022-11-11T20:53:02.969Z,6.70
2022-11-11T20:57:04.709Z,6.71
2022-11-11T21:01:12.583Z,6.72
2022-11-11T21:05:16.894Z,6.64
2022-11-11T21:09:18.669Z,6.54
2022-11-11T21:13:20.180Z,6.40
2022-11-11T21:17:21.745Z,6.32
2022-11-11T21:21:32.431Z,6.44
2022-11-11T21:25:34.101Z,6.35
2022-11-11T21:29:35.708Z,6.46
2022-11-11T21:33:37.452Z,6.43
2022-11-11T21:37:38.950Z,6.38
2022-11-11T21:41:41.316Z,6.36
2022-11-11T21:45:42.921Z,6.36
2022-11-11T21:49:44.529Z,6.26
2022-11-11T21:53:52.548Z,6.15
2022-11-11T21:57:54.007Z,6.13
2022-11-11T22:01:55.529Z,6.22
2022-11-11T22:06:01.972Z,6.41
2022-11-11T22:10:03.752Z,6.53
2022-11-11T22:14:06.065Z,6.46
2022-11-11T22:18:07.588Z,6.27
2022-11-11T22:22:08.989Z,6.19
2022-11-11T22:26:12.262Z,6.07
2022-11-11T22:30:13.892Z,5.87
2022-11-11T22:34:15.654Z,5.82
2022-11-11T22:38:17.102Z,5.94
2022-11-11T22:42:18.591Z,5.96
2022-11-11T22:46:21.751Z,5.86
2022-11-11T22:50:23.195Z,5.71
2022-11-11T22:54:24.660Z,5.77
2022-11-11T22:58:26.256Z,5.76
2022-11-11T23:02:27.903Z,5.70
2022-11-11T23:06:32.310Z,5.52
2022-11-11T23:10:33.736Z,5.42
2022-11-11T23:14:35.191Z,5.31
2022-11-11T23:18:36.803Z,5.27
2022-11-11T23:22:38.234Z,5.35
2022-11-11T23:26:39.758Z,5.42
2022-11-11T23:30:41.256Z,5.41
2022-11-11T23:34:42.703Z,5.27
2022-11-11T23:38:44.197Z,5.22
2022-11-11T23:42:45.628Z,5.08
2022-11-11T23:46:47.190Z,4.89
2022-11-11T23:50:49.371Z,4.91
2022-11-11T23:54:50.828Z,5.07
2022-11-11T23:58:52.382Z,4.87
